Morenci, Arizona
Current Conditions -  °F | °C
As of 8:51 AM on Saturday 20 Dec 2014 (Local Time) from KSAD Reporting Station
Clear Clear  
Wind Chill: 31°   Ceiling: Unl
Heat Index: 35°   Visibility: 10mi
Dew Point: 33°   Wind: 5mph
Humidity: 92%   Direction: 200°SSW
Pressure: 30.18"   Gusts: NA
Location:  33.08°N, 109.37°W
Report Text: KSAD 201551Z AUTO 20004KT 10SM CLR 02/01 A3018 RMK AO2 SLP221 T00170006
Loading
Personal Weather Stations






























Interactive Weather Map New forecast layout! Learn more

10-Day Weather Forecast

Advertisements
Track Severe Weather on mobile